Share

Parkersburg, IL (62452)

Parkersburg/Wynoose (KILOLNEY4) Elev 404 ft | 38.60 °N, 88.14 °W | Change Station

Current weather conditions updated 48 seconds ago

Clear
Clear
69.0 °F
Feels Like 69.0 °F
N
2.0
Wind Variable Wind from SE
Gusts 3.0 mph
Sunrise 6:13 AM
Sunset 7:30 PM
Moon Waning Gibbous

Tomorrow is forecast to be nearly the same temperature as today.

Pressure 30.24 in
Visibility 10.0 miles
Clouds Clear
Dew Point 46 °F
Humidity 44%
Rainfall 0.00 in
Snow Depth Not available.
UV 1 out of 16
Pollen 10.20 out of 12
Air Quality Not available.
Flu Activity Local Activity
METAR KOLY 172255Z AUTO 00000KT 10SM CLR 18/02 A3024 RMK AO2

More Conditions Fewer Conditions

Pressure 30.24 in
Visibility 10.0 miles
Clouds Clear
Dew Point 46 °F
Humidity 44%
Rainfall 0.00 in
Snow Depth Not available.
UV 1 out of 16
Pollen 10.20 out of 12
Air Quality Not available.
Flu Activity Local Activity
METAR KOLY 172255Z AUTO 00000KT 10SM CLR 18/02 A3024 RMK AO2

More Conditions Fewer Conditions

10-Day Forecast

Almanac

Astronomy

Apr. 17, 2014 Rise Set
Actual Time 6:13 AM CDT 7:30 PM CDT
Civil Twilight 5:45 AM CDT 7:58 PM CDT
Nautical Twilight 5:12 AM CDT 8:31 PM CDT
Astronomical Twilight 4:38 AM CDT 9:06 PM CDT
Moon 10:14 PM CDT 7:46 AM CDT
Length of Visible Light 14h 12m
Length of Day
13h 17m
Tomorrow will be 2m 21s longer.
Waning Gibbous, 92% of the Moon is Illuminated
Today
Waning Gibbous
Apr 22
Last Quarter
Apr 29
New
May 6
First Quarter
May 14
Full

Today's Extremes

State Highs State Lows

Community

  • Morning Light
    Morning Light
  • New Day
    New Day
  • Lake Michigan Sunrise
    Lake Michigan Sunrise
  • sunset from izmir, narlıdere
    sunset from izmir, narlıdere
  • oregon cherry
    oregon cherry

WunderPhotos

Upload Photos

1,702,164 photos uploaded!

WunderBlogs® & News

Nearby

Snow Depth

Station Depth Elevation
No new snow has been reported.

Coastal Water Temperatures

Place Temperature
No Stations Reporting

Earthquake Activity

City Distance Mag. Time & Date
No recent earthquake activity has been reported nearby.
Minimum magnitude displayed is 2.5.

Nearby Weather Stations

Station Location Temp. Dew Point Humidity Wind Precip. Elev Updated Type
Parkersburg/Wynoose, Olney, IL 69.0 °F 46 °F 44% SE  at  2.0 mph 0.00 in / hr 404 ft 6:18 PM CDT Normal
Olney - 2 Miles South, Olney, IL 65.0 °F 41 °F 42% SSW  at  8.0 mph 0.00 in / hr 446 ft 6:18 PM CDT Normal
North East Olney, Il, Olney, IL 67.6 °F 67 °F 98% WNW  at  2.2 mph - / hr 479 ft 6:10 PM CDT Normal
North of Baker's Garage, Albion, IL 65.9 °F 40 °F 39% SE  at  5.0 mph 0.00 in / hr 430 ft 6:19 PM CDT Rapid Fire

Show More Stations Show Fewer Stations

What do you think?

We're not finished. Please let us know what you like, what you don't like, and what you are still missing.